Time;durP1;ratioP1;P1;durP2;ratioP2;P2;SDS_P1;SDS_P2;PMS_P1;PMS_P2;Temp;Humidity;BMP_temperature;BMP_pressure;BME280_temperature;BME280_humidity;BME280_pressure;Samples;Min_cycle;Max_cycle;Signal;HPM_P1;HPM_P2
2022/09/18 00:02:22;;;;;;;2.42;1.30;;;13.30;99.90;;;;;;5073550;28;20176;-72
2022/09/18 00:04:50;;;;;;;3.42;1.48;;;13.40;99.90;;;;;;5080547;28;20222;-72
2022/09/18 00:07:18;;;;;;;4.57;1.40;;;13.30;99.90;;;;;;5078809;28;20214;-73
2022/09/18 00:09:44;;;;;;;3.92;1.50;;;13.40;99.90;;;;;;5082185;28;20168;-72
2022/09/18 00:12:12;;;;;;;2.80;1.33;;;13.40;99.90;;;;;;5091950;28;20179;-71
2022/09/18 00:14:38;;;;;;;2.55;1.08;;;13.40;99.90;;;;;;5078790;28;20225;-71
2022/09/18 00:17:03;;;;;;;1.88;1.20;;;13.40;99.90;;;;;;5083278;28;20168;-72
2022/09/18 00:19:31;;;;;;;2.08;1.20;;;13.40;99.90;;;;;;5078499;28;20164;-70
2022/09/18 00:21:59;;;;;;;4.45;1.20;;;13.40;99.90;;;;;;5078760;28;20176;-71
2022/09/18 00:24:24;;;;;;;4.55;1.17;;;13.40;99.90;;;;;;5078153;28;20192;-71
2022/09/18 00:26:50;;;;;;;3.75;1.20;;;13.40;99.90;;;;;;5079689;28;20263;-69
2022/09/18 00:29:16;;;;;;;2.53;1.17;;;13.40;99.90;;;;;;5079697;28;20251;-72
2022/09/18 00:31:42;;;;;;;3.30;1.20;;;13.40;99.90;;;;;;5073810;28;20196;-71
2022/09/18 00:34:14;;;;;;;2.88;1.20;;;13.40;99.90;;;;;;5066507;28;20183;-70
2022/09/18 00:36:42;;;;;;;2.08;1.00;;;13.40;99.90;;;;;;5078269;28;20168;-71
2022/09/18 00:39:12;;;;;;;2.58;1.00;;;13.40;99.90;;;;;;5078595;28;20191;-70
2022/09/18 00:41:39;;;;;;;3.85;1.35;;;13.50;99.90;;;;;;5079422;28;20184;-71
2022/09/18 00:44:39;;;;;;;2.70;1.02;;;13.50;99.90;;;;;;5073554;28;20184;-71
2022/09/18 00:47:10;;;;;;;4.43;1.20;;;13.50;99.90;;;;;;5060932;28;20212;-73
2022/09/18 00:49:47;;;;;;;1.45;0.75;;;13.40;99.90;;;;;;5078114;28;20180;-71
2022/09/18 00:52:20;;;;;;;2.65;1.00;;;13.40;99.90;;;;;;5075448;28;20184;-71
2022/09/18 00:54:51;;;;;;;1.40;0.80;;;13.40;99.90;;;;;;5089113;28;20243;-71
2022/09/18 00:57:23;;;;;;;1.20;0.80;;;13.40;99.90;;;;;;5078296;28;20160;-71
2022/09/18 00:59:50;;;;;;;4.47;1.17;;;13.40;99.90;;;;;;5075101;28;20193;-71
2022/09/18 01:02:21;;;;;;;2.88;1.20;;;13.40;99.90;;;;;;5078216;28;20234;-71
2022/09/18 01:04:48;;;;;;;1.88;0.90;;;13.30;99.90;;;;;;5077874;28;20254;-72
2022/09/18 01:07:28;;;;;;;2.08;1.05;;;13.30;99.90;;;;;;5071570;28;20176;-70
2022/09/18 01:10:12;;;;;;;2.28;1.10;;;13.40;99.90;;;;;;5072905;28;20270;-70
2022/09/18 01:13:09;;;;;;;4.13;1.10;;;13.30;99.90;;;;;;5074177;28;20259;-72
2022/09/18 01:15:53;;;;;;;4.07;1.33;;;13.30;99.90;;;;;;5076704;28;20202;-71
2022/09/18 01:18:35;;;;;;;3.03;1.20;;;13.30;99.90;;;;;;5075561;28;20195;-70
2022/09/18 01:21:23;;;;;;;1.48;0.82;;;13.30;99.90;;;;;;5075916;28;20196;-71
2022/09/18 01:23:51;;;;;;;1.77;0.90;;;13.30;99.90;;;;;;5076753;28;20183;-71
2022/09/18 01:26:40;;;;;;;2.80;1.13;;;13.30;99.90;;;;;;5067540;28;20287;-72
2022/09/18 01:29:51;;;;;;;4.00;1.20;;;13.30;99.90;;;;;;5070705;28;20284;-72
2022/09/18 01:32:22;;;;;;;2.60;0.93;;;13.30;99.90;;;;;;5066369;28;20183;-71
2022/09/18 01:35:03;;;;;;;2.28;0.90;;;13.30;99.90;;;;;;5077748;28;20175;-72
2022/09/18 01:37:54;;;;;;;1.73;1.10;;;13.30;99.90;;;;;;5073970;28;20239;-69
2022/09/18 01:40:46;;;;;;;2.05;0.90;;;13.30;99.90;;;;;;5076538;28;20176;-71
2022/09/18 01:43:15;;;;;;;6.05;1.10;;;13.30;99.90;;;;;;5077767;28;20237;-71
2022/09/18 01:45:47;;;;;;;2.58;0.93;;;13.30;99.90;;;;;;5076971;28;20195;-70
2022/09/18 01:48:22;;;;;;;2.35;0.80;;;13.30;99.90;;;;;;5077364;28;20191;-71
2022/09/18 01:50:53;;;;;;;1.40;0.80;;;13.30;99.90;;;;;;5077635;28;20191;-72
2022/09/18 01:53:26;;;;;;;2.10;0.80;;;13.40;99.90;;;;;;5077828;28;20172;-71
2022/09/18 01:56:15;;;;;;;3.50;1.00;;;13.30;99.90;;;;;;5057506;28;20197;-71
2022/09/18 01:58:40;;;;;;;2.83;1.00;;;13.40;99.90;;;;;;5070496;28;20190;-68
2022/09/18 02:01:14;;;;;;;1.63;0.80;;;13.40;99.90;;;;;;5057520;28;20267;-72
2022/09/18 02:04:02;;;;;;;1.85;1.00;;;13.40;99.90;;;;;;5064911;28;20180;-71
2022/09/18 02:06:47;;;;;;;1.83;0.80;;;13.40;99.90;;;;;;5057763;28;20161;-71
2022/09/18 02:09:13;;;;;;;3.25;1.00;;;13.40;99.90;;;;;;5073591;28;20182;-70
2022/09/18 02:11:44;;;;;;;2.25;0.75;;;13.40;99.90;;;;;;5075894;28;20196;-71
2022/09/18 02:14:22;;;;;;;1.83;0.68;;;13.40;99.90;;;;;;5073520;28;20247;-71
2022/09/18 02:16:52;;;;;;;2.88;0.93;;;13.40;99.90;;;;;;5094216;28;20164;-72
2022/09/18 02:19:25;;;;;;;1.92;1.05;;;13.40;99.90;;;;;;5077932;28;20171;-71
2022/09/18 02:21:53;;;;;;;1.30;0.70;;;13.40;99.90;;;;;;5077616;28;20173;-70
2022/09/18 02:24:23;;;;;;;1.98;0.85;;;13.40;99.90;;;;;;5071355;28;20253;-71
2022/09/18 02:26:53;;;;;;;2.35;0.80;;;13.40;99.90;;;;;;5063330;28;20494;-69
2022/09/18 02:29:23;;;;;;;1.67;0.88;;;13.40;99.90;;;;;;5077101;28;20168;-72
2022/09/18 02:31:53;;;;;;;0.95;0.65;;;13.40;99.90;;;;;;5067167;28;20197;-72
2022/09/18 02:34:20;;;;;;;1.13;0.90;;;13.40;99.90;;;;;;5068218;28;20187;-71
2022/09/18 02:37:06;;;;;;;2.42;0.85;;;13.30;99.90;;;;;;5068664;28;20498;-70
2022/09/18 02:39:53;;;;;;;2.33;0.88;;;13.40;99.90;;;;;;5059055;28;20173;-71
2022/09/18 02:42:19;;;;;;;2.10;0.95;;;13.30;99.90;;;;;;5066706;28;20191;-72
2022/09/18 02:45:16;;;;;;;2.83;0.82;;;13.30;99.90;;;;;;5068890;28;20176;-72
2022/09/18 02:48:08;;;;;;;2.05;0.80;;;13.30;99.90;;;;;;5061949;28;20199;-71
2022/09/18 02:51:03;;;;;;;1.85;0.73;;;13.30;99.90;;;;;;5050342;28;20213;-71
2022/09/18 02:53:34;;;;;;;2.92;0.80;;;13.30;99.90;;;;;;5076177;28;20176;-72
2022/09/18 02:56:16;;;;;;;1.95;0.85;;;13.20;99.90;;;;;;5076701;28;20263;-71
2022/09/18 02:59:18;;;;;;;2.70;1.48;;;13.20;99.90;;;;;;5080537;28;20257;-72
2022/09/18 03:01:44;;;;;;;1.40;0.80;;;13.20;99.90;;;;;;5047326;28;20180;-71
2022/09/18 03:04:18;;;;;;;1.67;1.00;;;13.20;99.90;;;;;;5095927;28;20298;-73
2022/09/18 03:06:44;;;;;;;1.00;0.70;;;13.20;99.90;;;;;;5084565;28;20207;-72
2022/09/18 03:09:09;;;;;;;1.65;0.90;;;13.20;99.90;;;;;;5066339;28;20258;-72
2022/09/18 03:11:37;;;;;;;1.92;1.15;;;13.20;99.90;;;;;;5067711;28;20206;-72
2022/09/18 03:14:03;;;;;;;1.30;0.90;;;13.20;99.90;;;;;;5076599;28;20196;-72
2022/09/18 03:16:29;;;;;;;1.92;0.93;;;13.20;99.90;;;;;;5072036;28;20271;-72
2022/09/18 03:18:54;;;;;;;1.23;0.90;;;13.20;99.90;;;;;;5067194;28;20255;-72
2022/09/18 03:21:20;;;;;;;2.35;1.00;;;13.20;99.90;;;;;;5061218;28;20219;-73
2022/09/18 03:23:46;;;;;;;2.25;1.10;;;13.20;99.90;;;;;;5081227;28;20176;-72
2022/09/18 03:26:11;;;;;;;1.83;0.90;;;13.20;99.90;;;;;;5079532;28;20243;-73
2022/09/18 03:28:39;;;;;;;1.55;0.90;;;13.20;99.90;;;;;;5061868;28;20283;-70
2022/09/18 03:31:05;;;;;;;3.03;0.90;;;13.20;99.90;;;;;;5061298;28;20218;-72
2022/09/18 03:33:31;;;;;;;1.83;1.00;;;13.20;99.90;;;;;;5060482;28;20173;-71
2022/09/18 03:35:56;;;;;;;1.73;0.90;;;13.20;99.90;;;;;;5070157;28;20200;-72
2022/09/18 03:38:22;;;;;;;1.73;0.90;;;13.20;99.90;;;;;;5080359;28;20168;-72
2022/09/18 03:40:47;;;;;;;1.45;0.95;;;13.10;99.90;;;;;;5079797;28;20179;-72
2022/09/18 03:43:13;;;;;;;1.00;0.70;;;13.20;99.90;;;;;;5080135;28;20179;-73
2022/09/18 03:45:41;;;;;;;3.10;0.85;;;13.10;99.90;;;;;;5079720;28;20317;-70
2022/09/18 03:48:07;;;;;;;1.52;0.80;;;13.20;99.90;;;;;;5074646;28;20218;-71
2022/09/18 03:50:32;;;;;;;2.13;0.80;;;13.10;99.90;;;;;;5070380;28;20216;-72
2022/09/18 03:52:58;;;;;;;1.17;0.80;;;13.10;99.90;;;;;;5066950;28;20197;-70
2022/09/18 03:55:23;;;;;;;2.42;0.90;;;13.10;99.90;;;;;;5074210;28;20190;-72
2022/09/18 03:57:49;;;;;;;1.95;1.10;;;13.10;99.90;;;;;;5064155;28;20238;-72
2022/09/18 04:00:15;;;;;;;2.53;1.00;;;13.10;99.90;;;;;;5108399;28;20225;-71
2022/09/18 04:02:41;;;;;;;0.93;0.80;;;13.10;99.90;;;;;;5066258;28;20204;-71
2022/09/18 04:05:10;;;;;;;3.05;0.90;;;13.10;99.90;;;;;;5079131;28;20199;-71
2022/09/18 04:07:38;;;;;;;2.42;0.98;;;13.10;99.90;;;;;;5078716;28;20178;-72
2022/09/18 04:10:04;;;;;;;2.08;0.90;;;13.10;99.90;;;;;;5077635;28;20237;-73
2022/09/18 04:12:32;;;;;;;1.48;0.90;;;13.10;99.90;;;;;;5079092;28;20456;-73
2022/09/18 04:14:57;;;;;;;1.70;0.80;;;13.10;99.90;;;;;;5079563;28;20194;-73
2022/09/18 04:17:23;;;;;;;2.05;0.90;;;13.10;99.90;;;;;;5083158;28;20176;-71
2022/09/18 04:19:53;;;;;;;1.27;0.70;;;13.00;99.90;;;;;;5079644;28;20203;-69
2022/09/18 04:22:24;;;;;;;1.38;0.80;;;13.10;99.90;;;;;;5084703;28;20172;-70
2022/09/18 04:24:49;;;;;;;1.35;0.70;;;13.10;99.90;;;;;;5073810;28;20187;-70
2022/09/18 04:27:15;;;;;;;1.85;0.70;;;13.10;99.90;;;;;;5075015;28;20178;-71
2022/09/18 04:29:43;;;;;;;0.90;0.63;;;13.10;99.90;;;;;;5078919;28;20168;-70
2022/09/18 04:32:11;;;;;;;1.42;0.80;;;13.10;99.90;;;;;;5059497;28;20208;-70
2022/09/18 04:34:36;;;;;;;0.93;0.80;;;13.10;99.90;;;;;;5067259;28;20184;-71
2022/09/18 04:37:02;;;;;;;2.42;0.77;;;13.10;99.90;;;;;;5078863;28;20263;-70
2022/09/18 04:39:28;;;;;;;1.42;0.68;;;13.10;99.90;;;;;;5065676;28;20173;-70
2022/09/18 04:41:54;;;;;;;1.17;0.52;;;13.10;99.90;;;;;;5071339;28;20172;-71
2022/09/18 04:44:20;;;;;;;1.02;0.60;;;13.10;99.90;;;;;;5069813;28;20226;-71
2022/09/18 04:46:45;;;;;;;1.45;0.80;;;13.10;99.90;;;;;;5070293;28;20171;-71
2022/09/18 04:49:11;;;;;;;1.75;0.77;;;13.10;99.90;;;;;;5078457;28;20182;-71
2022/09/18 04:51:36;;;;;;;1.90;0.80;;;13.00;99.90;;;;;;5070956;28;20203;-71
2022/09/18 04:54:02;;;;;;;1.20;0.70;;;13.10;99.90;;;;;;5077631;28;20179;-71
2022/09/18 04:56:30;;;;;;;3.55;0.77;;;13.00;99.90;;;;;;5061126;28;20169;-71
2022/09/18 04:58:56;;;;;;;1.42;0.80;;;13.00;99.90;;;;;;5064367;28;20176;-71
2022/09/18 05:01:21;;;;;;;2.35;0.70;;;13.00;99.90;;;;;;5078029;28;20228;-71
2022/09/18 05:03:47;;;;;;;2.95;0.80;;;13.00;99.90;;;;;;5078271;28;20187;-71
2022/09/18 05:06:13;;;;;;;1.48;0.80;;;13.00;99.90;;;;;;5082991;28;20233;-71
2022/09/18 05:08:38;;;;;;;1.00;0.70;;;13.00;99.90;;;;;;5066975;28;20179;-71
2022/09/18 05:11:04;;;;;;;2.60;1.00;;;13.00;99.90;;;;;;5075979;28;20333;-69
2022/09/18 05:13:30;;;;;;;2.15;1.10;;;13.00;99.90;;;;;;5063993;28;20173;-71
2022/09/18 05:15:56;;;;;;;1.33;0.70;;;13.00;99.90;;;;;;5065086;28;20179;-70
2022/09/18 05:18:22;;;;;;;0.85;0.73;;;13.00;99.90;;;;;;5065675;28;20245;-70
2022/09/18 05:20:47;;;;;;;1.98;1.00;;;13.00;99.90;;;;;;5071999;28;20211;-71
2022/09/18 05:23:17;;;;;;;2.22;1.10;;;13.00;99.90;;;;;;5076340;28;20236;-70
2022/09/18 05:25:43;;;;;;;1.27;0.90;;;13.00;99.90;;;;;;5062066;28;20223;-70
2022/09/18 05:28:10;;;;;;;1.88;0.80;;;13.00;99.90;;;;;;5069242;28;20180;-70
2022/09/18 05:30:36;;;;;;;1.80;0.80;;;13.00;99.90;;;;;;5067511;28;20199;-70
2022/09/18 05:33:04;;;;;;;1.25;0.90;;;13.00;99.90;;;;;;5063388;28;20177;-71
2022/09/18 05:35:31;;;;;;;2.20;1.00;;;13.00;99.90;;;;;;5065545;28;20200;-70
2022/09/18 05:37:57;;;;;;;3.25;1.73;;;13.10;99.90;;;;;;5080998;28;20172;-70
2022/09/18 05:40:26;;;;;;;2.92;1.10;;;13.10;99.90;;;;;;5071376;28;20248;-70
2022/09/18 05:42:52;;;;;;;1.70;1.10;;;13.00;99.90;;;;;;5066192;28;20179;-71
2022/09/18 05:45:18;;;;;;;4.05;1.20;;;13.00;99.90;;;;;;5080418;28;20171;-70
2022/09/18 05:47:55;;;;;;;1.48;0.85;;;13.10;99.90;;;;;;5084223;28;20182;-70
2022/09/18 05:50:24;;;;;;;1.55;0.98;;;13.10;99.90;;;;;;5073513;28;20183;-70
2022/09/18 05:53:07;;;;;;;2.28;1.00;;;13.10;99.90;;;;;;5074077;28;20172;-70
2022/09/18 05:55:33;;;;;;;2.47;0.93;;;13.00;99.90;;;;;;5059087;28;20182;-71
2022/09/18 05:58:00;;;;;;;2.13;1.00;;;13.10;99.90;;;;;;5061704;28;20209;-70
2022/09/18 06:00:28;;;;;;;1.35;0.90;;;13.10;99.90;;;;;;5065846;28;20407;-70
2022/09/18 06:03:02;;;;;;;3.42;1.00;;;13.10;99.90;;;;;;5068898;28;20183;-72
2022/09/18 06:05:29;;;;;;;2.05;0.90;;;13.10;99.90;;;;;;5072996;28;20205;-71
2022/09/18 06:08:02;;;;;;;2.50;0.95;;;13.10;99.90;;;;;;5068715;28;20182;-70
2022/09/18 06:10:31;;;;;;;3.05;1.20;;;13.10;99.90;;;;;;5066657;28;20215;-70
2022/09/18 06:13:05;;;;;;;3.67;1.20;;;13.10;99.90;;;;;;5066417;28;20176;-71
2022/09/18 06:15:34;;;;;;;2.45;1.30;;;13.20;99.90;;;;;;5064585;28;20183;-70
2022/09/18 06:18:02;;;;;;;2.63;1.30;;;13.10;99.90;;;;;;5064631;28;20185;-71
2022/09/18 06:20:27;;;;;;;1.92;1.05;;;13.10;99.90;;;;;;5063828;28;20181;-71
2022/09/18 06:22:55;;;;;;;3.47;1.20;;;13.10;99.90;;;;;;5069715;28;20280;-71
2022/09/18 06:25:23;;;;;;;2.67;1.00;;;13.10;99.90;;;;;;5065837;28;20200;-71
2022/09/18 06:27:57;;;;;;;2.80;1.10;;;13.20;99.90;;;;;;5064250;28;20198;-70
2022/09/18 06:30:27;;;;;;;4.93;1.30;;;13.20;99.90;;;;;;5090963;28;20196;-71
2022/09/18 06:32:53;;;;;;;1.70;0.85;;;13.20;99.90;;;;;;5066605;28;20179;-70
2022/09/18 06:35:19;;;;;;;3.70;1.02;;;13.20;99.90;;;;;;5068888;28;20248;-71
2022/09/18 06:37:45;;;;;;;3.10;1.25;;;13.20;99.90;;;;;;5070456;28;20260;-69
2022/09/18 06:40:10;;;;;;;1.25;1.00;;;13.20;99.90;;;;;;5069746;28;20231;-71
2022/09/18 06:42:36;;;;;;;1.80;1.00;;;13.20;99.90;;;;;;5068347;28;20176;-71
2022/09/18 06:45:03;;;;;;;2.42;1.27;;;13.30;99.90;;;;;;5066773;28;20278;-71
2022/09/18 06:47:30;;;;;;;3.30;1.52;;;13.30;99.90;;;;;;5069687;28;20494;-71
2022/09/18 06:49:56;;;;;;;1.85;1.20;;;13.30;99.90;;;;;;5068323;28;20176;-70
2022/09/18 06:52:26;;;;;;;1.50;0.90;;;13.40;99.90;;;;;;5070264;28;20177;-71
2022/09/18 06:54:54;;;;;;;2.38;1.20;;;13.40;99.90;;;;;;5070865;28;20200;-70
2022/09/18 06:57:22;;;;;;;2.42;1.50;;;13.50;99.90;;;;;;5093055;28;20267;-70
2022/09/18 06:59:50;;;;;;;2.25;1.10;;;13.50;99.90;;;;;;5067558;28;20200;-76
2022/09/18 07:02:16;;;;;;;2.85;1.30;;;13.50;99.90;;;;;;5071221;28;20316;-75
2022/09/18 07:04:41;;;;;;;3.13;1.40;;;13.50;99.90;;;;;;5074793;28;20215;-73
2022/09/18 07:07:10;;;;;;;3.72;1.48;;;13.50;99.90;;;;;;5069525;28;20411;-70
2022/09/18 07:09:38;;;;;;;2.25;1.08;;;13.40;99.90;;;;;;5065048;28;20196;-71
2022/09/18 07:12:04;;;;;;;3.30;1.23;;;13.40;99.90;;;;;;5069811;28;20234;-71
2022/09/18 07:14:50;;;;;;;3.42;1.33;;;13.40;99.90;;;;;;5069198;28;20184;-72
2022/09/18 07:17:27;;;;;;;3.03;1.30;;;13.40;99.90;;;;;;5070605;28;20283;-71
2022/09/18 07:19:55;;;;;;;3.67;1.60;;;13.40;99.90;;;;;;5071452;28;20188;-75
2022/09/18 07:22:23;;;;;;;4.47;1.60;;;13.40;99.90;;;;;;5074333;28;20184;-73
2022/09/18 07:24:48;;;;;;;3.03;1.45;;;13.50;99.90;;;;;;5065419;28;20278;-73
2022/09/18 07:27:14;;;;;;;3.63;1.30;;;13.50;99.90;;;;;;5068492;28;20330;-73
2022/09/18 07:29:40;;;;;;;3.38;1.70;;;13.50;99.90;;;;;;5067613;28;20260;-73
2022/09/18 07:32:08;;;;;;;2.72;1.60;;;13.40;99.90;;;;;;5069960;28;20242;-73
2022/09/18 07:34:34;;;;;;;3.08;1.58;;;13.30;99.90;;;;;;5068338;28;20164;-73
2022/09/18 07:37:00;;;;;;;2.40;1.33;;;13.30;99.90;;;;;;5069582;28;20179;-73
2022/09/18 07:39:25;;;;;;;3.67;1.20;;;13.30;99.90;;;;;;5068426;28;20195;-72
2022/09/18 07:41:51;;;;;;;3.00;1.40;;;13.20;99.90;;;;;;5070436;28;20196;-75
2022/09/18 07:44:18;;;;;;;4.05;1.67;;;13.20;99.90;;;;;;5067457;28;20172;-75
2022/09/18 07:46:44;;;;;;;2.22;1.50;;;13.20;99.90;;;;;;5070627;28;20171;-72
2022/09/18 07:49:12;;;;;;;2.97;1.35;;;13.20;99.90;;;;;;5066994;28;20199;-74
2022/09/18 07:51:37;;;;;;;3.88;1.15;;;13.20;99.90;;;;;;5065427;28;20216;-75
2022/09/18 07:54:08;;;;;;;3.00;1.27;;;13.20;99.90;;;;;;5071096;28;20259;-75
2022/09/18 07:56:35;;;;;;;1.55;1.23;;;13.30;99.90;;;;;;5069846;28;20274;-74
2022/09/18 07:59:01;;;;;;;3.05;1.17;;;13.40;99.90;;;;;;5075053;28;20199;-75
2022/09/18 08:01:29;;;;;;;2.15;1.13;;;13.50;99.90;;;;;;5070368;28;20270;-75
2022/09/18 08:03:57;;;;;;;2.88;1.25;;;13.50;99.90;;;;;;5067836;28;20176;-75
2022/09/18 08:06:22;;;;;;;1.13;0.82;;;13.60;99.90;;;;;;5093391;28;20192;-75
2022/09/18 08:08:48;;;;;;;4.47;1.25;;;13.70;99.90;;;;;;5068837;28;20173;-78
2022/09/18 08:11:14;;;;;;;1.48;0.90;;;13.70;99.90;;;;;;5067203;28;20239;-74
2022/09/18 08:13:42;;;;;;;1.85;0.93;;;13.80;99.90;;;;;;5066936;28;20203;-73
2022/09/18 08:16:08;;;;;;;1.67;0.85;;;13.80;99.90;;;;;;5068438;28;20183;-76
2022/09/18 08:18:38;;;;;;;1.60;1.15;;;13.90;99.90;;;;;;5066965;28;20196;-76
2022/09/18 08:21:04;;;;;;;1.65;0.82;;;14.00;99.90;;;;;;5066133;28;20238;-75
2022/09/18 08:23:30;;;;;;;1.98;0.77;;;14.00;99.90;;;;;;5065886;28;20185;-76
2022/09/18 08:26:04;;;;;;;1.63;0.90;;;14.00;99.90;;;;;;5068326;28;20227;-74
2022/09/18 08:28:31;;;;;;;2.53;1.08;;;14.10;99.90;;;;;;5067558;28;20180;-76
2022/09/18 08:30:59;;;;;;;2.13;1.00;;;14.20;99.90;;;;;;5066610;28;20840;-74
2022/09/18 08:33:25;;;;;;;2.33;0.95;;;14.30;99.90;;;;;;5068243;28;20180;-74
2022/09/18 08:35:54;;;;;;;1.83;0.80;;;14.30;99.90;;;;;;5070095;28;20228;-73
2022/09/18 08:38:24;;;;;;;1.73;0.82;;;14.30;99.90;;;;;;5068457;28;20180;-75
2022/09/18 08:41:01;;;;;;;1.20;0.70;;;14.40;99.90;;;;;;5064276;28;20215;-74
2022/09/18 08:43:36;;;;;;;3.33;1.15;;;14.50;99.90;;;;;;5068244;28;20281;-74
2022/09/18 08:46:09;;;;;;;2.25;1.00;;;14.60;99.90;;;;;;5065672;28;20191;-74
2022/09/18 08:48:48;;;;;;;2.50;0.88;;;14.60;99.90;;;;;;5090409;28;20201;-72
2022/09/18 08:51:21;;;;;;;3.05;1.00;;;14.70;99.90;;;;;;5070414;28;20278;-72
2022/09/18 08:53:53;;;;;;;1.23;0.90;;;14.70;99.90;;;;;;5068885;28;20174;-74
2022/09/18 08:56:24;;;;;;;2.20;1.25;;;14.70;99.90;;;;;;5074290;28;20200;-74
2022/09/18 08:59:33;;;;;;;2.40;1.10;;;14.80;99.90;;;;;;5065359;28;20187;-75
2022/09/18 09:02:12;;;;;;;2.25;1.40;;;14.80;99.90;;;;;;5056957;28;20219;-74
2022/09/18 09:04:40;;;;;;;3.08;1.50;;;14.80;99.90;;;;;;5083037;28;20199;-75
2022/09/18 09:07:27;;;;;;;3.17;1.50;;;14.90;99.90;;;;;;5068402;28;20211;-74
2022/09/18 09:10:27;;;;;;;2.63;1.45;;;14.90;99.90;;;;;;5068029;28;20184;-76
2022/09/18 09:13:17;;;;;;;2.72;1.30;;;14.90;99.90;;;;;;5069315;28;20272;-73
2022/09/18 09:15:53;;;;;;;2.17;1.20;;;14.90;99.90;;;;;;5092629;28;20176;-74
2022/09/18 09:18:33;;;;;;;2.05;1.25;;;15.00;99.90;;;;;;5066995;28;20181;-72
2022/09/18 09:21:16;;;;;;;2.97;1.00;;;15.00;99.90;;;;;;5071114;28;20191;-75
2022/09/18 09:24:12;;;;;;;2.13;1.10;;;15.00;99.90;;;;;;5066221;28;20208;-72
2022/09/18 09:26:41;;;;;;;2.38;1.30;;;15.00;99.90;;;;;;5067432;28;20184;-72
2022/09/18 09:29:44;;;;;;;2.15;1.08;;;15.10;99.90;;;;;;5066655;28;20164;-72
2022/09/18 09:32:30;;;;;;;1.77;0.90;;;15.10;99.90;;;;;;5010387;28;20228;-72
2022/09/18 09:35:26;;;;;;;1.60;1.20;;;15.20;99.90;;;;;;5064192;28;20283;-73
2022/09/18 09:37:52;;;;;;;2.88;1.00;;;15.20;99.90;;;;;;5056260;28;20195;-72
2022/09/18 09:40:38;;;;;;;2.58;1.20;;;15.20;99.90;;;;;;5067695;28;20177;-75
2022/09/18 09:43:12;;;;;;;1.85;1.00;;;15.20;99.90;;;;;;5067104;28;20261;-74
2022/09/18 09:45:53;;;;;;;1.25;0.93;;;15.10;99.90;;;;;;5067471;28;20204;-75
2022/09/18 09:48:25;;;;;;;1.55;0.90;;;15.00;99.90;;;;;;5065506;28;20305;-74
2022/09/18 09:51:14;;;;;;;1.65;0.98;;;14.90;99.90;;;;;;5063704;28;20231;-73
2022/09/18 09:53:42;;;;;;;2.55;1.40;;;14.80;99.90;;;;;;5067832;28;20251;-74
2022/09/18 09:56:16;;;;;;;3.63;2.30;;;14.60;99.90;;;;;;5067125;28;20187;-75
2022/09/18 09:59:20;;;;;;;3.35;1.50;;;14.60;99.90;;;;;;5075698;28;20249;-73
2022/09/18 10:02:06;;;;;;;2.42;1.20;;;14.60;99.90;;;;;;5064925;28;20191;-75
2022/09/18 10:05:21;;;;;;;3.53;1.15;;;14.50;99.90;;;;;;5067762;28;20184;-78
2022/09/18 10:08:17;;;;;;;1.73;1.10;;;14.60;99.90;;;;;;5053263;28;20190;-77
2022/09/18 10:10:49;;;;;;;1.40;1.02;;;14.60;99.90;;;;;;5072054;28;20230;-73
2022/09/18 10:13:24;;;;;;;2.88;1.10;;;14.60;99.90;;;;;;5094300;28;20223;-76
2022/09/18 10:15:56;;;;;;;1.92;1.38;;;14.60;99.90;;;;;;5070101;28;20255;-77
2022/09/18 10:18:30;;;;;;;3.58;1.30;;;14.70;99.90;;;;;;5092294;28;20191;-76
2022/09/18 10:21:04;;;;;;;2.08;1.30;;;14.70;99.90;;;;;;5069008;28;20200;-78
2022/09/18 10:23:37;;;;;;;2.58;1.20;;;14.70;99.90;;;;;;5067451;28;20184;-78
2022/09/18 10:26:06;;;;;;;3.08;1.40;;;14.80;99.90;;;;;;5076326;28;20192;-74
2022/09/18 10:28:32;;;;;;;1.85;1.20;;;14.80;99.90;;;;;;5067241;28;20168;-77
2022/09/18 10:31:04;;;;;;;2.25;1.38;;;14.80;99.90;;;;;;5068786;28;20230;-77
2022/09/18 10:33:34;;;;;;;2.15;1.40;;;14.80;99.90;;;;;;5070833;28;20222;-76
2022/09/18 10:36:24;;;;;;;1.77;1.40;;;14.80;99.90;;;;;;5068022;28;20160;-79
2022/09/18 10:38:50;;;;;;;3.42;1.48;;;14.90;99.90;;;;;;5059360;28;20184;-74
2022/09/18 10:41:38;;;;;;;1.30;1.20;;;14.80;99.90;;;;;;5072696;28;20196;-73
2022/09/18 10:44:18;;;;;;;2.83;1.90;;;14.80;99.90;;;;;;5093591;28;20183;-76
2022/09/18 10:47:04;;;;;;;3.58;1.90;;;14.90;99.90;;;;;;5071317;28;20173;-78
2022/09/18 10:49:55;;;;;;;1.75;1.40;;;14.80;99.90;;;;;;5061491;28;20204;-73
2022/09/18 10:52:30;;;;;;;1.60;1.02;;;14.80;99.90;;;;;;5069975;28;20200;-72
2022/09/18 10:55:08;;;;;;;1.58;1.02;;;14.80;99.90;;;;;;5072137;28;20210;-73
2022/09/18 10:57:33;;;;;;;2.17;1.10;;;14.80;99.90;;;;;;5066277;28;20179;-74
2022/09/18 11:00:00;;;;;;;2.30;1.15;;;14.80;99.90;;;;;;5067005;28;20168;-73
2022/09/18 11:02:40;;;;;;;1.88;1.20;;;14.80;99.90;;;;;;5075429;28;20203;-75
2022/09/18 11:05:25;;;;;;;2.40;1.17;;;14.90;99.90;;;;;;5068993;28;20180;-78
2022/09/18 11:07:57;;;;;;;1.73;1.15;;;14.80;99.90;;;;;;5067791;28;20459;-74
2022/09/18 11:10:28;;;;;;;3.38;1.35;;;14.80;99.90;;;;;;5072309;28;20204;-73
2022/09/18 11:13:00;;;;;;;5.75;1.25;;;14.80;99.90;;;;;;5069661;28;20759;-79
2022/09/18 11:15:34;;;;;;;2.20;1.42;;;14.80;99.90;;;;;;5067045;28;20290;-74
2022/09/18 11:18:06;;;;;;;2.22;1.40;;;14.80;99.90;;;;;;5067809;28;20302;-73
2022/09/18 11:20:39;;;;;;;3.03;1.42;;;14.80;99.90;;;;;;5069304;28;20244;-74
2022/09/18 11:23:23;;;;;;;3.90;1.45;;;14.70;99.90;;;;;;5068576;28;20213;-76
2022/09/18 11:25:49;;;;;;;2.55;1.40;;;14.70;99.90;;;;;;5072946;28;21013;-76
2022/09/18 11:28:27;;;;;;;4.15;1.70;;;14.80;99.90;;;;;;5072755;28;20176;-76
2022/09/18 11:31:11;;;;;;;2.28;1.30;;;14.80;99.90;;;;;;5074049;28;20192;-80
2022/09/18 11:33:43;;;;;;;3.30;1.50;;;14.80;99.90;;;;;;5065715;28;20184;-74
2022/09/18 11:36:12;;;;;;;2.33;1.35;;;14.80;99.90;;;;;;5072122;28;20193;-74
2022/09/18 11:38:40;;;;;;;3.15;1.60;;;14.80;99.90;;;;;;5068453;28;20223;-79
2022/09/18 11:41:09;;;;;;;2.15;1.45;;;14.70;99.90;;;;;;5072916;28;20176;-80
2022/09/18 11:43:38;;;;;;;2.00;1.25;;;14.70;99.90;;;;;;5079683;28;20203;-75
2022/09/18 11:46:20;;;;;;;3.40;1.30;;;14.70;99.90;;;;;;5079017;28;20188;-74
2022/09/18 11:49:00;;;;;;;2.97;1.50;;;14.70;99.90;;;;;;5092864;28;20176;-74
2022/09/18 11:51:52;;;;;;;2.47;1.40;;;14.70;99.90;;;;;;5076266;28;20204;-76
2022/09/18 11:54:33;;;;;;;1.33;1.10;;;14.60;99.90;;;;;;5043838;28;20203;-74
2022/09/18 11:57:03;;;;;;;2.38;1.23;;;14.70;99.90;;;;;;5067704;28;20196;-77
2022/09/18 11:59:43;;;;;;;2.50;1.30;;;14.60;99.90;;;;;;5075198;28;20238;-74
2022/09/18 12:02:21;;;;;;;2.42;1.20;;;14.70;99.90;;;;;;5066167;28;20168;-73
2022/09/18 12:04:54;;;;;;;2.33;1.25;;;14.70;99.90;;;;;;5077910;28;20196;-75
2022/09/18 12:07:45;;;;;;;1.20;1.10;;;14.70;99.90;;;;;;5077265;28;20194;-75
2022/09/18 12:10:21;;;;;;;3.60;1.27;;;14.70;99.90;;;;;;5086497;28;20184;-77
2022/09/18 12:13:03;;;;;;;2.40;1.20;;;14.70;99.90;;;;;;5062206;28;20172;-76
2022/09/18 12:15:36;;;;;;;2.55;1.30;;;14.70;99.90;;;;;;5080684;28;20176;-77
2022/09/18 12:18:10;;;;;;;2.30;1.15;;;14.60;99.90;;;;;;5068119;28;20204;-76
2022/09/18 12:20:48;;;;;;;2.17;0.90;;;14.60;99.90;;;;;;5069307;28;20191;-79
2022/09/18 12:23:21;;;;;;;2.53;1.20;;;14.50;99.90;;;;;;5078782;28;20202;-77
2022/09/18 12:26:01;;;;;;;2.20;1.20;;;14.50;99.90;;;;;;5075899;28;20223;-77
2022/09/18 12:28:49;;;;;;;2.13;1.30;;;14.50;99.90;;;;;;5078875;28;20176;-77
2022/09/18 12:31:40;;;;;;;2.00;1.20;;;14.50;99.90;;;;;;5077526;28;20199;-76
2022/09/18 12:34:12;;;;;;;2.38;1.52;;;14.50;99.90;;;;;;5074225;28;20191;-76
2022/09/18 12:37:08;;;;;;;4.30;1.90;;;14.60;99.90;;;;;;5061834;28;20211;-78
2022/09/18 12:40:11;;;;;;;1.60;1.30;;;14.60;99.90;;;;;;5035520;28;20208;-76
2022/09/18 12:43:09;;;;;;;1.48;1.17;;;14.60;99.90;;;;;;5071869;28;20185;-76
2022/09/18 12:45:49;;;;;;;3.00;1.23;;;14.70;99.90;;;;;;5058224;28;20176;-74
2022/09/18 12:48:30;;;;;;;2.75;1.20;;;14.80;99.90;;;;;;5071807;28;20232;-75
2022/09/18 12:51:28;;;;;;;1.70;1.17;;;14.90;99.90;;;;;;5066489;28;20200;-75
2022/09/18 12:54:16;;;;;;;3.63;1.50;;;15.10;99.90;;;;;;5075494;28;20206;-75
2022/09/18 12:56:57;;;;;;;3.00;1.25;;;15.20;99.90;;;;;;5077796;28;20257;-76
2022/09/18 12:59:28;;;;;;;1.50;1.10;;;15.20;99.90;;;;;;5071893;28;20192;-78
2022/09/18 13:02:09;;;;;;;1.65;1.20;;;15.20;99.90;;;;;;5078078;28;20432;-74
2022/09/18 13:04:45;;;;;;;1.20;0.80;;;15.30;99.90;;;;;;5070796;28;20180;-75
2022/09/18 13:07:36;;;;;;;1.83;1.10;;;15.30;99.90;;;;;;5077408;28;20184;-74
2022/09/18 13:10:10;;;;;;;3.45;1.40;;;15.40;99.90;;;;;;5071006;28;20204;-76
2022/09/18 13:13:09;;;;;;;2.03;1.13;;;15.40;99.90;;;;;;5071061;28;20515;-78
2022/09/18 13:15:55;;;;;;;1.73;1.13;;;15.50;99.90;;;;;;5058229;28;20177;-76
2022/09/18 13:18:33;;;;;;;2.22;1.13;;;15.50;99.90;;;;;;5095025;28;20172;-74
2022/09/18 13:21:05;;;;;;;1.83;1.33;;;15.50;99.90;;;;;;5075188;28;20205;-79